»·PEaware :: UAL8 EDDC-KBOS

UAL8 :: EDDC-KBOS

FLIGHT INFORMATION

Flight Status: Arrived
Operator:
United Airlines
More flights by this operator :: More flights under this callsign
Pilot: Scott L. (17677)
Aircraft: BOEING 767-300
(B763)
More flights by this aircraft type
Origin: EDDC Dresden
Germany
Destination: KBOS Logan Intl
United States
More flights between these airports :: More routes between these airports
Route: BEBEX7W BEBEX Q230 IXUMI/N0451F300 Q230 TADUV/N0432F240 Q230 ORTAG/N0452F300 Q230 KUMER/N0455F320 SUTEB/N0455F340 VALBO UL619 CUTEL L983 GOW KUGUR/M079F340 RESNO 5620N 5630N 5640N 5450N/N0452F340 NEEKO/N0448F360 N478A TOPPS EURRO OOSHN5
File this flight plan on PilotEdge
Remarks: RMK / SIMBRIEF
Altitude:
(Current/Filed)
32,000ft
Speed:
(Current/Filed)
430kts
Departed: 13-Dec-20 12:53 PM
Arrived: 13-Dec-20 06:29 PM
Distance/Time
Traveled:
3328nm/5:35
Distance/Time
To Go:
Arrived

Flight Plot

Page will automatically refresh every two minutes.

Flight plan parsing failed; only flown route is shown


Map Options




Map Legend


Flown Route
Filed Route
Departure Airport
Arrival Airport
Navaid (VOR, NDB)
Fix

Horizontal Profiles

Position Reports

Time Latitude Longitude Heading Altitude Ground
Speed
13-Dec-20 12:51 51.486591 11.088955 279 29994ft 426kts
13-Dec-20 12:52 51.507508 10.899874 284 29999ft 443kts
13-Dec-20 12:53 51.530934 10.705830 290 29986ft 436kts
13-Dec-20 12:54 51.601062 10.552353 318 30752ft 431kts
13-Dec-20 12:55 51.691039 10.427595 320 31956ft 424kts
13-Dec-20 12:56 51.780768 10.305039 319 31965ft 422kts
13-Dec-20 12:57 51.870113 10.182616 319 31963ft 422kts
13-Dec-20 12:58 51.960002 10.058790 319 31961ft 422kts
13-Dec-20 12:59 52.049380 9.934998 319 31941ft 422kts
13-Dec-20 13:00 52.138443 9.810965 319 31943ft 422kts
13-Dec-20 13:01 52.228263 9.685198 319 31941ft 422kts
13-Dec-20 13:02 52.317314 9.559812 319 31939ft 422kts
13-Dec-20 13:03 52.406819 9.433091 319 31935ft 422kts
13-Dec-20 13:04 52.493941 9.309052 319 31941ft 422kts
13-Dec-20 13:05 52.582907 9.181704 319 31939ft 422kts
13-Dec-20 13:06 52.671584 9.054078 318 31935ft 421kts
13-Dec-20 13:07 52.759900 8.926248 316 31917ft 423kts
13-Dec-20 13:08 52.846522 8.800114 316 31909ft 423kts
13-Dec-20 13:09 52.936563 8.668287 315 31936ft 432kts
13-Dec-20 13:10 53.026599 8.535688 314 31935ft 436kts
13-Dec-20 13:11 53.118203 8.400013 314 31934ft 443kts
13-Dec-20 13:12 53.210197 8.262952 314 31929ft 442kts
13-Dec-20 13:13 53.302141 8.125128 314 31886ft 443kts
13-Dec-20 13:14 53.393933 7.986702 314 31885ft 443kts
13-Dec-20 13:15 53.485572 7.847660 314 31884ft 443kts
13-Dec-20 13:16 53.576726 7.708513 314 31882ft 443kts
13-Dec-20 13:17 53.668068 7.568229 314 31881ft 443kts
13-Dec-20 13:18 53.758987 7.427739 314 31879ft 443kts
13-Dec-20 13:19 53.848736 7.288199 313 31887ft 443kts
13-Dec-20 13:20 53.940041 7.145391 312 31885ft 443kts
13-Dec-20 13:21 54.030894 7.002399 311 31887ft 446kts
13-Dec-20 13:22 54.122387 6.857440 311 31864ft 449kts
13-Dec-20 13:23 54.214108 6.711227 311 31825ft 449kts
13-Dec-20 13:24 54.305073 6.565302 311 31831ft 448kts
13-Dec-20 13:25 54.397105 6.416705 311 31819ft 447kts
13-Dec-20 13:26 54.489000 6.267367 310 31815ft 448kts
13-Dec-20 13:27 54.579938 6.118621 310 31803ft 448kts
13-Dec-20 13:28 54.670913 5.968847 310 31803ft 449kts
13-Dec-20 13:29 54.761359 5.818993 310 31802ft 447kts
13-Dec-20 13:30 54.851755 5.668217 310 31785ft 448kts
13-Dec-20 13:31 54.942435 5.515931 311 31752ft 455kts
13-Dec-20 13:32 55.021393 5.343859 295 31751ft 455kts
13-Dec-20 13:33 55.082993 5.149493 294 31752ft 454kts
13-Dec-20 13:34 55.142455 4.955404 293 31722ft 458kts
13-Dec-20 13:35 55.203832 4.752681 293 31591ft 470kts
13-Dec-20 13:36 55.264837 4.549436 293 31581ft 469kts
13-Dec-20 13:37 55.325736 4.344803 292 31583ft 469kts
13-Dec-20 13:38 55.385990 4.140529 292 31588ft 469kts
13-Dec-20 13:39 55.446127 3.934887 292 31587ft 469kts
13-Dec-20 13:40 55.505513 3.730007 292 31586ft 468kts
13-Dec-20 13:41 55.564762 3.523967 292 31586ft 468kts
13-Dec-20 13:42 55.623588 3.317591 291 31588ft 468kts
13-Dec-20 13:43 55.682207 3.110100 291 31589ft 467kts
13-Dec-20 13:44 55.740792 2.900825 290 31590ft 478kts
13-Dec-20 13:45 55.800072 2.687158 290 31588ft 479kts
13-Dec-20 13:46 55.858920 2.473036 290 31589ft 479kts
13-Dec-20 13:47 55.887596 2.247230 268 31591ft 462kts
13-Dec-20 13:48 55.893561 2.017719 267 31591ft 460kts
13-Dec-20 13:49 55.898101 1.789335 267 31591ft 461kts
13-Dec-20 13:50 55.902165 1.559764 267 31591ft 461kts
13-Dec-20 13:51 55.905733 1.334335 266 31592ft 460kts
13-Dec-20 13:52 55.908948 1.104598 266 31592ft 461kts
13-Dec-20 13:53 55.911729 0.874833 265 31573ft 463kts
13-Dec-20 13:54 55.914088 0.644705 265 31478ft 462kts
13-Dec-20 13:55 55.916023 0.413860 265 31348ft 462kts
13-Dec-20 13:56 55.917523 0.184068 265 31351ft 462kts
13-Dec-20 13:57 55.918594 -0.045777 265 31349ft 460kts
13-Dec-20 13:59 55.919234 -0.275663 265 31349ft 461kts
13-Dec-20 14:00 55.919448 -0.505696 265 31348ft 461kts
13-Dec-20 14:01 55.919188 -0.735672 264 31349ft 460kts
13-Dec-20 14:02 55.918493 -0.964960 264 31350ft 461kts
13-Dec-20 14:03 55.917355 -1.196136 264 31349ft 466kts
13-Dec-20 14:04 55.915791 -1.428269 264 31348ft 465kts
13-Dec-20 14:05 55.913783 -1.660130 263 31348ft 465kts
13-Dec-20 14:06 55.912207 -1.892166 264 31349ft 466kts
13-Dec-20 14:07 55.910612 -2.123643 264 31272ft 465kts
13-Dec-20 14:08 55.908569 -2.355827 264 31241ft 465kts
13-Dec-20 14:09 55.906106 -2.586507 264 31239ft 465kts
13-Dec-20 14:10 55.903184 -2.819628 263 31241ft 465kts
13-Dec-20 14:11 55.899847 -3.050235 263 31241ft 465kts
13-Dec-20 14:12 55.896060 -3.282879 264 31240ft 466kts
13-Dec-20 14:13 55.891842 -3.514708 264 31239ft 466kts
13-Dec-20 14:14 55.887172 -3.747317 263 31240ft 465kts
13-Dec-20 14:15 55.882086 -3.978807 263 31217ft 466kts
13-Dec-20 14:16 55.876572 -4.209977 263 31187ft 465kts
13-Dec-20 14:16 55.871645 -4.402568 263 31186ft 466kts
13-Dec-20 14:18 55.860457 -4.671245 260 31186ft 464kts
13-Dec-20 14:18 55.851522 -4.864003 260 31185ft 465kts
13-Dec-20 14:19 55.855762 -5.097638 278 31187ft 481kts
13-Dec-20 14:20 55.875784 -5.334039 273 31131ft 478kts
13-Dec-20 14:21 55.891960 -5.570439 273 31131ft 478kts
13-Dec-20 14:22 55.907413 -5.806490 272 31130ft 477kts
13-Dec-20 14:23 55.922452 -6.043643 272 31105ft 477kts
13-Dec-20 14:24 55.936989 -6.280234 272 31104ft 477kts
13-Dec-20 14:25 55.951064 -6.516865 272 31103ft 476kts
13-Dec-20 14:26 55.964656 -6.753073 271 31064ft 476kts
13-Dec-20 14:27 55.977793 -6.989487 272 31051ft 476kts
13-Dec-20 14:28 55.990531 -7.227248 272 31050ft 478kts
13-Dec-20 14:29 56.002856 -7.465634 272 31050ft 478kts
13-Dec-20 14:30 56.014679 -7.703501 271 31051ft 478kts
13-Dec-20 14:31 56.026016 -7.940859 271 31051ft 478kts
13-Dec-20 14:32 56.036958 -8.179802 271 31050ft 478kts
13-Dec-20 14:33 56.047410 -8.418236 271 31050ft 478kts
13-Dec-20 14:34 56.057397 -8.656669 270 31050ft 478kts
13-Dec-20 14:35 56.066938 -8.895442 270 31051ft 478kts
13-Dec-20 14:36 56.076030 -9.134823 270 31051ft 480kts
13-Dec-20 14:37 56.084685 -9.374989 270 31051ft 480kts
13-Dec-20 14:38 56.092861 -9.614928 270 31051ft 480kts
13-Dec-20 14:39 56.100596 -9.855623 270 31049ft 480kts
13-Dec-20 14:40 56.107847 -10.095916 270 31044ft 479kts
13-Dec-20 14:41 56.114604 -10.335331 270 31044ft 479kts
13-Dec-20 14:42 56.120930 -10.576096 270 31044ft 479kts
13-Dec-20 14:43 56.126772 -10.816362 269 31045ft 479kts
13-Dec-20 14:44 56.132163 -11.057564 269 31045ft 482kts
13-Dec-20 14:46 56.137868 -11.338910 269 31045ft 482kts
13-Dec-20 14:46 56.141549 -11.540025 269 31045ft 482kts
13-Dec-20 14:47 56.145517 -11.780396 268 31045ft 481kts
13-Dec-20 14:48 56.149033 -12.021786 268 31045ft 482kts
13-Dec-20 14:49 56.152085 -12.263565 268 31045ft 482kts
13-Dec-20 14:50 56.154662 -12.505295 268 31045ft 482kts
13-Dec-20 14:51 56.156770 -12.747466 267 31045ft 481kts
13-Dec-20 14:52 56.158402 -12.989282 267 31045ft 481kts
13-Dec-20 14:53 56.159561 -13.232166 268 31045ft 483kts
13-Dec-20 14:54 56.160256 -13.475157 268 31046ft 483kts
13-Dec-20 14:55 56.160470 -13.717688 267 31045ft 482kts
13-Dec-20 14:56 56.160205 -13.960198 267 31045ft 482kts
13-Dec-20 14:57 56.159469 -14.202490 267 31045ft 483kts
13-Dec-20 14:58 56.158258 -14.445026 267 31045ft 483kts
13-Dec-20 14:59 56.156575 -14.687139 266 31046ft 482kts
13-Dec-20 15:00 56.154415 -14.929102 266 31045ft 482kts
13-Dec-20 15:01 56.151784 -15.170740 267 31046ft 483kts
13-Dec-20 15:02 56.148669 -15.414344 267 31046ft 483kts
13-Dec-20 15:03 56.145087 -15.656683 266 31046ft 483kts
13-Dec-20 15:04 56.141031 -15.898761 266 31046ft 483kts
13-Dec-20 15:05 56.136500 -16.141002 266 31046ft 483kts
13-Dec-20 15:06 56.131505 -16.382782 266 31046ft 483kts
13-Dec-20 15:07 56.126027 -16.624934 266 31046ft 483kts
13-Dec-20 15:08 56.120082 -16.866521 265 31046ft 483kts
13-Dec-20 15:09 56.113655 -17.108524 266 31046ft 483kts
13-Dec-20 15:10 56.106774 -17.350148 266 31111ft 482kts
13-Dec-20 15:11 56.099422 -17.591443 266 31333ft 483kts
13-Dec-20 15:12 56.091585 -17.832995 265 31452ft 482kts
13-Dec-20 15:13 56.083310 -18.073591 265 31451ft 482kts
13-Dec-20 15:15 56.073061 -18.354265 265 31451ft 482kts
13-Dec-20 15:15 56.065335 -18.555035 265 31451ft 482kts
13-Dec-20 15:16 56.055635 -18.795766 264 31451ft 482kts
13-Dec-20 15:17 56.045481 -19.036013 264 31451ft 482kts
13-Dec-20 15:18 56.034842 -19.276638 264 31452ft 482kts
13-Dec-20 15:19 56.023765 -19.516563 264 31452ft 482kts
13-Dec-20 15:20 56.012191 -19.756858 263 31451ft 482kts
13-Dec-20 15:21 56.000220 -19.996412 264 31451ft 482kts
13-Dec-20 15:22 56.009043 -20.236789 273 31451ft 483kts
13-Dec-20 15:23 56.018457 -20.478610 273 31452ft 483kts
13-Dec-20 15:24 56.027060 -20.719287 272 31451ft 483kts
13-Dec-20 15:25 56.035150 -20.959364 272 31451ft 483kts
13-Dec-20 15:26 56.042806 -21.200498 272 31452ft 484kts
13-Dec-20 15:27 56.050007 -21.442089 272 31452ft 484kts
13-Dec-20 15:28 56.056723 -21.683425 272 31452ft 484kts
13-Dec-20 15:29 56.062968 -21.925036 272 31452ft 484kts
13-Dec-20 15:30 56.068641 -22.162149 272 31452ft 484kts
13-Dec-20 15:31 56.074043 -22.408099 272 31452ft 484kts
13-Dec-20 15:32 56.078866 -22.649365 272 31452ft 484kts
13-Dec-20 15:33 56.083221 -22.891088 271 31456ft 480kts
13-Dec-20 15:34 56.087046 -23.129277 272 31455ft 480kts
13-Dec-20 15:35 56.090447 -23.368977 272 31453ft 479kts
13-Dec-20 15:36 56.093364 -23.607570 272 31453ft 479kts
13-Dec-20 15:37 56.095824 -23.846976 271 31453ft 479kts
13-Dec-20 15:38 56.097823 -24.086322 271 31453ft 479kts
13-Dec-20 15:39 56.099360 -24.325762 271 31453ft 479kts
13-Dec-20 15:40 56.100433 -24.565035 271 31453ft 479kts
13-Dec-20 15:41 56.101040 -24.803924 270 31453ft 479kts
13-Dec-20 15:42 56.101179 -25.043707 270 31453ft 478kts
13-Dec-20 15:43 56.100881 -25.274554 271 31453ft 475kts
13-Dec-20 15:44 56.100136 -25.512345 271 31453ft 475kts
13-Dec-20 15:45 56.098928 -25.749339 270 31454ft 475kts
13-Dec-20 15:46 56.097256 -25.987474 270 31454ft 475kts
13-Dec-20 15:47 56.095138 -26.224541 270 31454ft 475kts
13-Dec-20 15:48 56.092556 -26.462439 270 31453ft 475kts
13-Dec-20 15:49 56.089523 -26.699704 269 31454ft 475kts
13-Dec-20 15:50 56.086030 -26.937098 269 31455ft 475kts
13-Dec-20 15:52 56.082125 -27.172171 270 31453ft 467kts
13-Dec-20 15:53 56.077807 -27.405663 270 31453ft 468kts
13-Dec-20 15:54 56.073049 -27.638960 270 31453ft 468kts
13-Dec-20 15:55 56.067842 -27.872419 269 31454ft 468kts
13-Dec-20 15:56 56.062186 -28.106261 269 31454ft 468kts
13-Dec-20 15:57 56.056098 -28.339731 269 31453ft 468kts
13-Dec-20 15:58 56.049573 -28.572945 269 31453ft 468kts
13-Dec-20 15:59 56.042572 -28.807181 268 31455ft 468kts
13-Dec-20 16:00 56.035194 -29.039303 268 31454ft 466kts
13-Dec-20 16:01 56.027359 -29.272125 268 31454ft 466kts
13-Dec-20 16:02 56.019108 -29.504163 268 31454ft 466kts
13-Dec-20 16:03 56.010409 -29.736388 267 31456ft 466kts
13-Dec-20 16:04 56.001263 -29.968731 267 31454ft 466kts
13-Dec-20 16:05 56.007600 -30.198855 276 31453ft 464kts
13-Dec-20 16:06 56.016687 -30.430616 275 31454ft 464kts
13-Dec-20 16:07 56.025043 -30.661477 275 31453ft 464kts
13-Dec-20 16:08 56.032965 -30.893044 275 31777ft 465kts
13-Dec-20 16:09 56.040442 -31.124143 274 31999ft 464kts
13-Dec-20 16:10 56.047491 -31.355832 274 31999ft 463kts
13-Dec-20 16:11 56.054091 -31.586846 274 31999ft 463kts
13-Dec-20 16:11 56.059313 -31.781368 273 31999ft 469kts
13-Dec-20 16:13 56.066095 -32.053196 273 32000ft 469kts
13-Dec-20 16:13 56.070594 -32.248768 273 31997ft 468kts
13-Dec-20 16:15 56.076359 -32.520962 273 32000ft 469kts
13-Dec-20 16:15 56.080122 -32.716001 272 32003ft 468kts
13-Dec-20 16:16 56.084192 -32.949562 272 32001ft 468kts
13-Dec-20 16:17 56.087885 -33.184280 271 31999ft 471kts
13-Dec-20 16:18 56.091110 -33.419882 271 31999ft 470kts
13-Dec-20 16:19 56.093886 -33.654731 270 31999ft 471kts
13-Dec-20 16:20 56.096214 -33.889624 270 31999ft 470kts
13-Dec-20 16:21 56.098102 -34.124963 270 32000ft 471kts
13-Dec-20 16:22 56.099543 -34.360234 270 32000ft 471kts
13-Dec-20 16:23 56.100536 -34.595470 270 31998ft 470kts
13-Dec-20 16:24 56.101079 -34.830618 269 32000ft 471kts
13-Dec-20 16:25 56.101182 -35.065837 269 31999ft 471kts
13-Dec-20 16:26 56.100829 -35.301674 269 31999ft 471kts
13-Dec-20 16:27 56.100031 -35.537472 269 31999ft 471kts
13-Dec-20 16:28 56.098780 -35.773277 268 32000ft 471kts
13-Dec-20 16:29 56.095819 -36.153707 268 31998ft 471kts
13-Dec-20 16:30 56.090513 -36.626120 268 32018ft 472kts
13-Dec-20 16:31 56.083422 -37.097443 267 33984ft 472kts
13-Dec-20 16:32 56.074614 -37.564467 267 33769ft 466kts
13-Dec-20 16:33 56.064086 -38.029709 266 33641ft 465kts
13-Dec-20 16:34 56.051818 -38.494434 266 33639ft 465kts
13-Dec-20 16:35 56.037809 -38.958567 266 33642ft 466kts
13-Dec-20 16:36 56.022086 -39.421804 266 33639ft 464kts
13-Dec-20 16:37 56.004659 -39.883739 265 33641ft 464kts
13-Dec-20 16:38 55.849679 -40.970722 254 33674ft 464kts
13-Dec-20 16:39 55.233414 -44.472804 252 33551ft 453kts
13-Dec-20 16:40 54.546542 -47.682463 254 33595ft 423kts
13-Dec-20 16:41 53.849611 -50.702570 249 34286ft 421kts
13-Dec-20 16:42 53.420997 -52.274383 253 34347ft 419kts
13-Dec-20 16:43 53.352871 -52.539752 250 34339ft 420kts
13-Dec-20 16:44 53.304243 -52.719762 250 34465ft 425kts
13-Dec-20 16:45 53.255356 -52.899114 250 35739ft 424kts
13-Dec-20 16:46 53.205874 -53.079265 249 36347ft 430kts
13-Dec-20 16:47 53.156023 -53.259235 249 36345ft 424kts
13-Dec-20 16:48 53.105990 -53.438569 249 36344ft 424kts
13-Dec-20 16:49 53.056590 -53.614247 249 36340ft 416kts
13-Dec-20 16:50 53.007161 -53.788716 248 36351ft 411kts
13-Dec-20 16:51 52.958474 -53.959345 248 36346ft 405kts
13-Dec-20 16:52 52.909812 -54.128631 248 36344ft 405kts
13-Dec-20 16:53 52.861001 -54.297235 248 36341ft 404kts
13-Dec-20 16:54 52.811788 -54.466003 248 36338ft 406kts
13-Dec-20 16:55 52.762406 -54.634137 248 36337ft 406kts
13-Dec-20 16:56 52.712509 -54.802883 247 36350ft 406kts
13-Dec-20 16:57 52.662557 -54.970606 247 36348ft 406kts
13-Dec-20 16:58 52.612180 -55.138583 247 36348ft 412kts
13-Dec-20 16:59 52.560806 -55.308624 247 36342ft 414kts
13-Dec-20 17:00 52.509533 -55.477168 247 36343ft 412kts
13-Dec-20 17:01 52.457767 -55.646143 247 36340ft 413kts
13-Dec-20 17:02 52.405282 -55.814644 242 36344ft 415kts
13-Dec-20 17:03 52.336533 -55.968348 237 36349ft 419kts
13-Dec-20 17:04 52.265720 -56.119359 237 36346ft 419kts
13-Dec-20 17:05 52.194138 -56.270603 237 36345ft 418kts
13-Dec-20 17:06 52.122508 -56.421026 237 36340ft 418kts
13-Dec-20 17:07 52.050716 -56.570907 237 36314ft 418kts
13-Dec-20 17:08 51.978636 -56.720487 236 36288ft 421kts
13-Dec-20 17:09 51.906439 -56.869446 236 36289ft 419kts
13-Dec-20 17:10 51.834093 -57.017860 236 36282ft 420kts
13-Dec-20 17:11 51.760805 -57.167327 236 36271ft 425kts
13-Dec-20 17:12 51.687220 -57.316525 236 36250ft 423kts
13-Dec-20 17:13 51.613250 -57.465627 235 36252ft 424kts
13-Dec-20 17:14 51.539199 -57.614041 236 36247ft 424kts
13-Dec-20 17:15 51.465110 -57.761656 235 36256ft 424kts
13-Dec-20 17:16 51.390585 -57.909307 235 36261ft 425kts
13-Dec-20 17:17 51.316434 -58.055375 235 36257ft 424kts
13-Dec-20 17:18 51.241318 -58.202499 235 36256ft 424kts
13-Dec-20 17:19 51.166286 -58.348640 235 36251ft 424kts
13-Dec-20 17:20 51.090853 -58.494715 235 36253ft 425kts
13-Dec-20 17:21 51.016564 -58.637771 235 36247ft 422kts
13-Dec-20 17:22 50.941432 -58.781612 234 36255ft 409kts
13-Dec-20 17:23 50.869316 -58.919010 233 36258ft 402kts
13-Dec-20 17:24 50.796341 -59.057262 232 36258ft 407kts
13-Dec-20 17:25 50.723249 -59.194945 232 36255ft 407kts
13-Dec-20 17:26 50.650108 -59.332028 232 36166ft 407kts
13-Dec-20 17:27 50.576835 -59.468631 232 36067ft 406kts
13-Dec-20 17:28 50.503432 -59.604758 232 36066ft 407kts
13-Dec-20 17:29 50.429685 -59.740803 232 36110ft 407kts
13-Dec-20 17:30 50.356237 -59.875584 232 36119ft 407kts
13-Dec-20 17:31 50.282046 -60.011020 232 36118ft 407kts
13-Dec-20 17:32 50.207932 -60.145613 232 36115ft 407kts
13-Dec-20 17:33 49.978029 -60.558719 232 36085ft 407kts
13-Dec-20 17:34 48.752094 -62.656306 231 36088ft 401kts
13-Dec-20 17:35 47.563656 -64.538734 230 35967ft 394kts
13-Dec-20 17:36 46.330407 -66.355207 231 35722ft 374kts
13-Dec-20 17:37 45.664089 -67.299253 229 35912ft 388kts
13-Dec-20 17:38 45.586000 -67.403994 230 35911ft 385kts
13-Dec-20 17:39 45.508367 -67.509944 230 35909ft 385kts
13-Dec-20 17:40 45.431033 -67.615333 230 35906ft 385kts
13-Dec-20 17:41 45.353072 -67.721175 229 35923ft 386kts
13-Dec-20 17:42 45.271155 -67.821178 226 36373ft 389kts
13-Dec-20 17:43 45.188584 -67.919871 226 37239ft 389kts
13-Dec-20 17:44 45.105099 -68.019145 226 37898ft 389kts
13-Dec-20 17:46 45.021975 -68.117585 226 37956ft 387kts
13-Dec-20 17:47 44.939310 -68.215109 226 37953ft 389kts
13-Dec-20 17:48 44.857606 -68.311105 226 37957ft 388kts
13-Dec-20 17:49 44.773013 -68.410120 226 37957ft 388kts
13-Dec-20 17:50 44.689428 -68.507577 226 37951ft 388kts
13-Dec-20 17:51 44.605959 -68.604525 226 37947ft 389kts
13-Dec-20 17:52 44.522223 -68.701413 225 37965ft 390kts
13-Dec-20 17:53 44.438202 -68.798237 226 37962ft 389kts
13-Dec-20 17:54 44.354375 -68.894488 226 37968ft 389kts
13-Dec-20 17:55 44.270349 -68.990590 226 37973ft 391kts
13-Dec-20 17:56 44.186217 -69.086435 226 37968ft 391kts
13-Dec-20 17:57 44.102910 -69.180910 227 36481ft 372kts
13-Dec-20 17:58 44.022014 -69.272486 227 34948ft 376kts
13-Dec-20 17:59 43.940154 -69.364736 226 33393ft 379kts
13-Dec-20 18:00 43.857350 -69.457708 226 31852ft 386kts
13-Dec-20 18:01 43.772616 -69.552466 225 30308ft 389kts
13-Dec-20 18:01 43.694237 -69.616427 208 29003ft 403kts
13-Dec-20 18:03 43.571646 -69.673755 207 27213ft 389kts
13-Dec-20 18:03 43.488977 -69.711490 207 25959ft 364kts
13-Dec-20 18:05 43.380891 -69.760658 207 24191ft 336kts
13-Dec-20 18:06 43.294794 -69.799696 207 22687ft 320kts
13-Dec-20 18:06 43.224498 -69.831497 206 21436ft 316kts
13-Dec-20 18:07 43.141386 -69.868957 206 19927ft 310kts
13-Dec-20 18:08 43.059901 -69.905577 205 18416ft 305kts
13-Dec-20 18:10 42.966957 -69.947196 206 16649ft 295kts
13-Dec-20 18:10 42.902739 -69.975893 206 15384ft 287kts
13-Dec-20 18:11 42.827625 -70.009400 206 13883ft 280kts
13-Dec-20 18:12 42.754167 -70.042078 205 12383ft 275kts
13-Dec-20 18:13 42.681313 -70.074386 205 10984ft 268kts
13-Dec-20 18:14 42.633861 -70.138881 245 10289ft 247kts
13-Dec-20 18:15 42.603335 -70.222564 233 9168ft 249kts
13-Dec-20 18:16 42.538949 -70.264923 207 8089ft 259kts
13-Dec-20 18:17 42.479686 -70.313092 250 6892ft 244kts
13-Dec-20 18:18 42.463629 -70.394907 257 5983ft 203kts
13-Dec-20 18:19 42.450690 -70.469224 257 5981ft 201kts
13-Dec-20 18:20 42.437847 -70.543697 257 5760ft 207kts
13-Dec-20 18:21 42.424497 -70.621796 257 4396ft 217kts
13-Dec-20 18:22 42.411207 -70.696931 257 3941ft 182kts
13-Dec-20 18:23 42.399453 -70.763753 258 2981ft 163kts
13-Dec-20 18:24 42.389204 -70.822743 258 2464ft 157kts
13-Dec-20 18:25 42.379507 -70.878117 258 1656ft 144kts
13-Dec-20 18:26 42.370586 -70.928877 258 914ft 137kts
13-Dec-20 18:27 42.361783 -70.978798 258 187ft 133kts
13-Dec-20 18:28 42.355963 -71.011850 266 17ft 15kts
13-Dec-20 18:29 42.356681 -71.012921 2 17ft 0kts
13-Dec-20 18:30 42.357248 -71.013122 324 17ft 0kts
13-Dec-20 18:31 42.358148 -71.015953 284 17ft 11kts
13-Dec-20 18:32 42.360745 -71.016331 293 17ft 10kts
13-Dec-20 18:33 42.360870 -71.016756 291 17ft 0kts
13-Dec-20 18:34 42.360870 -71.016756 291 17ft 0kts
13-Dec-20 18:35 42.360870 -71.016756 291 18ft 0kts
13-Dec-20 18:36 42.360870 -71.016756 291 18ft 0kts
13-Dec-20 18:37 42.360870 -71.016756 291 18ft 0kts
13-Dec-20 18:38 42.360870 -71.016756 291 18ft 0kts
13-Dec-20 18:39 42.360870 -71.016756 291 18ft 0kts
13-Dec-20 18:40 42.360870 -71.016756 291 18ft 0kts
13-Dec-20 18:41 42.360870 -71.016756 291 18ft 0kts
13-Dec-20 18:42 42.360870 -71.016756 291 18ft 0kts

Navigation Log

Ident Type
Flight plan parsing failed, navigation log unavailable